Time;durP1;ratioP1;P1;durP2;ratioP2;P2;SDS_P1;SDS_P2;PMS_P1;PMS_P2;Temp;Humidity;BMP_temperature;BMP_pressure;BME280_temperature;BME280_humidity;BME280_pressure;Samples;Min_cycle;Max_cycle;Signal;HPM_P1;HPM_P2
2023/05/15 00:01:23;;;;;;;18.95;9.68;;;;;;;12.99;100.00;100960.16;5020469;28;20069;-73
2023/05/15 00:03:50;;;;;;;23.30;11.60;;;;;;;13.03;100.00;100958.84;5013979;28;20473;-73
2023/05/15 00:06:17;;;;;;;20.25;12.55;;;;;;;13.06;100.00;100951.63;5020002;28;21654;-72
2023/05/15 00:08:44;;;;;;;24.42;13.38;;;;;;;13.03;100.00;100955.28;5016671;28;20049;-72
2023/05/15 00:11:10;;;;;;;25.60;14.32;;;;;;;13.01;100.00;100954.91;5025545;28;20056;-74
2023/05/15 00:13:37;;;;;;;28.80;14.48;;;;;;;12.94;100.00;100949.47;5018856;28;20053;-71
2023/05/15 00:16:06;;;;;;;28.60;15.98;;;;;;;12.89;100.00;100947.97;5022584;28;20428;-72
2023/05/15 00:18:33;;;;;;;29.80;15.57;;;;;;;12.81;100.00;100940.94;5016120;28;20051;-72
2023/05/15 00:20:59;;;;;;;23.35;14.63;;;;;;;12.72;100.00;100951.88;5015402;28;20065;-72
2023/05/15 00:23:26;;;;;;;25.63;15.60;;;;;;;12.72;100.00;100948.31;5016400;28;20567;-72
2023/05/15 00:25:52;;;;;;;28.75;15.32;;;;;;;12.65;100.00;100937.28;5017422;28;20064;-72
2023/05/15 00:28:19;;;;;;;27.95;16.60;;;;;;;12.67;100.00;100951.56;5016537;28;20059;-71
2023/05/15 00:30:45;;;;;;;30.48;15.93;;;;;;;12.62;100.00;100944.47;5012877;28;20049;-72
2023/05/15 00:33:12;;;;;;;26.55;15.35;;;;;;;12.57;100.00;100946.97;5020003;28;20480;-71
2023/05/15 00:35:39;;;;;;;26.90;16.08;;;;;;;12.56;100.00;100950.97;5014357;28;20132;-72
2023/05/15 00:38:05;;;;;;;29.17;16.30;;;;;;;12.57;100.00;100938.59;5013719;28;20080;-70
2023/05/15 00:40:33;;;;;;;29.15;18.02;;;;;;;12.55;100.00;100938.25;5017741;28;20100;-71
2023/05/15 00:43:01;;;;;;;28.45;16.77;;;;;;;12.55;100.00;100938.25;5016870;28;20053;-72
2023/05/15 00:45:29;;;;;;;29.58;16.23;;;;;;;12.48;100.00;100939.16;5016497;28;22110;-71
2023/05/15 00:47:57;;;;;;;33.03;18.13;;;;;;;12.49;100.00;100932.34;5015578;28;20049;-72
2023/05/15 00:50:24;;;;;;;33.22;18.52;;;;;;;12.48;100.00;100927.22;5012539;28;20049;-72
2023/05/15 00:52:52;;;;;;;32.88;19.30;;;;;;;12.48;100.00;100921.66;5016385;28;20053;-71
2023/05/15 00:55:18;;;;;;;34.90;20.27;;;;;;;12.46;100.00;100919.28;5014284;28;20057;-72
2023/05/15 00:57:47;;;;;;;34.50;19.15;;;;;;;12.56;100.00;100920.31;5015698;28;20878;-72
2023/05/15 01:00:17;;;;;;;28.98;16.40;;;;;;;12.60;100.00;100918.22;5015699;28;20080;-72
2023/05/15 01:02:44;;;;;;;29.35;15.90;;;;;;;12.60;100.00;100921.81;5016090;28;20049;-73
2023/05/15 01:05:12;;;;;;;29.98;15.43;;;;;;;12.64;100.00;100922.53;5015376;28;20049;-71
2023/05/15 01:08:06;;;;;;;25.15;14.00;;;;;;;12.62;100.00;100919.38;5016220;28;20435;-72
2023/05/15 01:10:34;;;;;;;25.05;14.10;;;;;;;12.62;100.00;100922.16;5016477;28;20096;-72
2023/05/15 01:13:02;;;;;;;25.60;14.45;;;;;;;12.58;100.00;100927.03;5014676;28;20180;-71
2023/05/15 01:15:29;;;;;;;28.90;13.95;;;;;;;12.53;100.00;100925.50;5016404;28;20049;-72
2023/05/15 01:17:55;;;;;;;27.77;14.70;;;;;;;12.52;100.00;100930.75;5013775;28;20509;-71
2023/05/15 01:20:22;;;;;;;28.75;14.13;;;;;;;12.49;100.00;100930.38;5013183;28;21676;-71
2023/05/15 01:23:18;;;;;;;27.77;14.98;;;;;;;12.51;100.00;100927.16;5017395;28;20068;-71
2023/05/15 01:25:47;;;;;;;25.27;15.32;;;;;;;12.48;100.00;100928.00;5022037;28;20048;-72
2023/05/15 01:28:22;;;;;;;28.17;16.00;;;;;;;12.38;100.00;100928.97;5013634;28;20055;-72
2023/05/15 01:30:51;;;;;;;33.08;18.70;;;;;;;12.33;100.00;100930.22;5015573;28;20060;-72
2023/05/15 01:33:34;;;;;;;28.08;15.82;;;;;;;12.36;100.00;100932.19;5015996;28;21233;-72
2023/05/15 01:36:20;;;;;;;22.42;13.90;;;;;;;12.39;100.00;100920.19;5017148;28;20060;-71
2023/05/15 01:38:54;;;;;;;31.75;16.75;;;;;;;12.41;100.00;100922.56;5014696;28;20045;-72
2023/05/15 01:41:28;;;;;;;27.45;16.20;;;;;;;12.38;100.00;100918.63;5015545;28;20128;-71
2023/05/15 01:44:05;;;;;;;26.52;14.93;;;;;;;12.40;100.00;100921.75;5014624;28;20053;-72
2023/05/15 01:46:36;;;;;;;34.42;19.70;;;;;;;12.31;100.00;100929.88;5016319;28;20056;-72
2023/05/15 01:49:08;;;;;;;35.03;19.85;;;;;;;12.20;100.00;100923.69;5015736;28;20045;-72
2023/05/15 01:51:37;;;;;;;38.78;20.13;;;;;;;12.07;100.00;100925.50;5014627;28;20049;-72
2023/05/15 01:54:05;;;;;;;38.30;19.92;;;;;;;12.06;100.00;100926.69;5024683;28;20053;-71
2023/05/15 01:56:33;;;;;;;32.70;17.70;;;;;;;12.10;100.00;100918.28;5026595;28;20056;-71
2023/05/15 01:59:01;;;;;;;31.35;18.52;;;;;;;12.15;100.00;100912.22;5029553;28;20071;-72
2023/05/15 02:01:31;;;;;;;31.13;16.83;;;;;;;12.12;100.00;100911.06;5027278;28;20049;-72
2023/05/15 02:03:59;;;;;;;27.25;17.67;;;;;;;12.16;100.00;100916.59;5014191;28;20530;-71
2023/05/15 02:06:28;;;;;;;34.17;19.40;;;;;;;12.18;100.00;100920.53;5012377;28;20389;-71
2023/05/15 02:09:00;;;;;;;34.58;19.42;;;;;;;12.21;100.00;100928.03;5017300;28;20057;-73
2023/05/15 02:11:27;;;;;;;35.38;20.48;;;;;;;12.24;100.00;100929.97;5014185;28;20053;-74
2023/05/15 02:13:56;;;;;;;36.30;19.42;;;;;;;12.23;100.00;100924.84;5013811;28;20049;-71
2023/05/15 02:16:23;;;;;;;38.85;21.33;;;;;;;12.28;100.00;100935.50;5024647;28;20053;-71
2023/05/15 02:18:51;;;;;;;33.65;20.17;;;;;;;12.32;100.00;100931.44;5013310;28;20064;-71
2023/05/15 02:21:18;;;;;;;34.13;19.73;;;;;;;12.36;100.00;100931.41;5013764;28;20056;-71
2023/05/15 02:23:44;;;;;;;37.90;21.45;;;;;;;12.41;100.00;100933.72;5022811;28;20459;-72
2023/05/15 02:26:20;;;;;;;41.80;24.00;;;;;;;12.44;100.00;100928.06;5016910;28;20061;-71
2023/05/15 02:28:53;;;;;;;41.53;23.13;;;;;;;12.46;100.00;100922.84;5015285;28;20160;-70
2023/05/15 02:31:50;;;;;;;48.67;25.40;;;;;;;12.55;100.00;100935.47;5013927;28;20054;-72
2023/05/15 02:34:44;;;;;;;44.22;25.73;;;;;;;12.57;100.00;100936.63;5015304;28;20045;-71
2023/05/15 02:37:17;;;;;;;48.00;24.13;;;;;;;12.53;100.00;100953.41;5018821;28;20049;-71
2023/05/15 02:39:45;;;;;;;44.88;26.55;;;;;;;12.49;100.00;100952.69;5018473;28;20045;-72
2023/05/15 02:42:13;;;;;;;56.00;29.80;;;;;;;12.51;100.00;100932.72;5013446;28;20049;-72
2023/05/15 02:44:42;;;;;;;51.00;28.30;;;;;;;12.53;100.00;100941.47;5016094;28;20041;-71
2023/05/15 02:47:09;;;;;;;45.97;25.25;;;;;;;12.42;100.00;100946.44;5013829;28;20049;-72
2023/05/15 02:49:36;;;;;;;51.58;27.65;;;;;;;12.37;100.00;100961.66;5017636;28;20578;-72
2023/05/15 02:52:03;;;;;;;50.67;28.38;;;;;;;12.40;100.00;100965.59;5014809;28;20049;-72
2023/05/15 02:54:29;;;;;;;54.45;27.33;;;;;;;12.35;100.00;100964.03;5018875;28;20050;-71
2023/05/15 02:56:56;;;;;;;53.58;29.15;;;;;;;12.34;100.00;100956.91;5012792;28;20081;-72
2023/05/15 02:59:22;;;;;;;52.72;28.35;;;;;;;12.31;100.00;100966.09;5013702;28;20042;-71
2023/05/15 03:01:49;;;;;;;58.17;30.75;;;;;;;12.29;100.00;100957.38;5013686;28;21172;-71
2023/05/15 03:04:16;;;;;;;58.95;31.63;;;;;;;12.29;100.00;100965.72;5014257;28;20053;-71
2023/05/15 03:06:42;;;;;;;57.35;30.77;;;;;;;12.30;100.00;100960.94;5016038;28;20045;-72
2023/05/15 03:09:09;;;;;;;59.80;31.98;;;;;;;12.32;100.00;100962.09;5013074;28;20053;-72
2023/05/15 03:11:35;;;;;;;64.00;33.53;;;;;;;12.26;100.00;100955.41;5016773;28;20057;-72
2023/05/15 03:14:02;;;;;;;54.63;31.02;;;;;;;12.35;100.00;100957.66;5012410;28;20435;-71
2023/05/15 03:16:28;;;;;;;59.33;32.17;;;;;;;12.34;100.00;100945.75;5015087;28;20054;-72
2023/05/15 03:18:55;;;;;;;64.28;33.28;;;;;;;12.36;100.00;100951.69;5013887;28;20064;-71
2023/05/15 03:21:21;;;;;;;57.78;31.42;;;;;;;12.39;100.00;100941.72;5024376;28;20056;-71
2023/05/15 03:23:48;;;;;;;59.50;33.22;;;;;;;12.39;100.00;100945.28;5024816;28;20711;-71
2023/05/15 03:26:14;;;;;;;61.78;34.28;;;;;;;12.45;100.00;100940.81;5016703;28;20519;-72
2023/05/15 03:28:41;;;;;;;57.00;32.20;;;;;;;12.48;100.00;100939.94;5019642;28;20053;-71
2023/05/15 03:31:07;;;;;;;62.35;33.83;;;;;;;12.48;100.00;100946.75;5013700;28;20507;-72
2023/05/15 03:33:34;;;;;;;64.72;34.63;;;;;;;12.48;100.00;100948.31;5017111;28;20119;-73
2023/05/15 03:36:01;;;;;;;66.47;35.33;;;;;;;12.44;100.00;100957.97;5018759;28;20122;-71
2023/05/15 03:38:27;;;;;;;55.42;30.10;;;;;;;12.27;100.00;100943.09;5018103;28;20053;-72
2023/05/15 03:40:54;;;;;;;63.33;35.00;;;;;;;12.26;100.00;100957.44;5017116;28;20432;-72
2023/05/15 03:43:20;;;;;;;62.45;34.17;;;;;;;12.23;100.00;100958.28;5016283;28;20522;-72
2023/05/15 03:45:47;;;;;;;61.17;36.15;;;;;;;12.20;100.00;100957.13;5016130;28;20512;-70
2023/05/15 03:48:13;;;;;;;64.72;35.40;;;;;;;12.22;100.00;100960.28;5019164;28;20064;-70
2023/05/15 03:50:40;;;;;;;56.90;29.92;;;;;;;12.02;100.00;100953.81;5017744;28;20140;-72
2023/05/15 03:53:06;;;;;;;65.57;34.55;;;;;;;11.91;100.00;100964.34;5027075;28;20512;-72
2023/05/15 03:55:34;;;;;;;63.28;33.13;;;;;;;11.86;100.00;100962.03;5015798;28;20204;-71
2023/05/15 03:58:01;;;;;;;63.08;35.85;;;;;;;11.90;100.00;100965.56;5027162;28;20053;-71
2023/05/15 04:00:27;;;;;;;64.55;32.42;;;;;;;11.73;100.00;100961.03;5019805;28;20427;-71
2023/05/15 04:02:54;;;;;;;74.70;39.72;;;;;;;11.86;100.00;100964.84;5025233;28;20053;-72
2023/05/15 04:05:21;;;;;;;66.63;36.42;;;;;;;11.86;100.00;100961.25;5024312;28;20049;-72
2023/05/15 04:07:48;;;;;;;67.97;35.08;;;;;;;11.85;100.00;100959.69;5025556;28;20049;-72
2023/05/15 04:10:14;;;;;;;71.13;36.50;;;;;;;11.89;100.00;100952.06;5020145;28;20049;-72
2023/05/15 04:12:44;;;;;;;72.05;39.13;;;;;;;11.94;100.00;100957.94;5015715;28;20052;-71
2023/05/15 04:15:16;;;;;;;72.07;36.90;;;;;;;12.03;100.00;100957.41;5016903;28;20495;-71
2023/05/15 04:17:44;;;;;;;67.18;35.40;;;;;;;12.01;100.00;100952.25;5016652;28;20052;-71
2023/05/15 04:20:16;;;;;;;72.15;39.05;;;;;;;12.07;100.00;100947.78;5016031;28;20404;-71
2023/05/15 04:22:43;;;;;;;67.45;36.25;;;;;;;12.08;100.00;100946.56;5019057;28;20049;-72
2023/05/15 04:25:12;;;;;;;79.43;40.17;;;;;;;12.16;100.00;100950.03;5022225;28;20085;-71
2023/05/15 04:27:40;;;;;;;68.93;37.92;;;;;;;12.18;100.00;100951.19;5014361;28;20045;-72
2023/05/15 04:30:07;;;;;;;73.90;40.53;;;;;;;12.14;100.00;100952.44;5019020;28;20049;-71
2023/05/15 04:32:34;;;;;;;74.13;40.72;;;;;;;12.21;100.00;100946.75;5015233;28;20063;-72
2023/05/15 04:35:08;;;;;;;72.80;40.22;;;;;;;12.15;100.00;100942.88;5018221;28;20061;-71
2023/05/15 04:37:35;;;;;;;69.70;38.83;;;;;;;12.06;100.00;100951.75;5015971;28;20439;-72
2023/05/15 04:40:02;;;;;;;73.53;40.28;;;;;;;12.06;100.00;100948.22;5014631;28;20053;-71
2023/05/15 04:42:29;;;;;;;76.05;40.00;;;;;;;12.08;100.00;100954.94;5012959;28;20720;-71
2023/05/15 04:44:56;;;;;;;74.82;40.45;;;;;;;12.07;100.00;100952.56;5014354;28;20060;-72
2023/05/15 04:47:22;;;;;;;74.03;40.85;;;;;;;12.12;100.00;100947.28;5017813;28;20049;-69
2023/05/15 04:49:49;;;;;;;90.13;44.28;;;;;;;12.11;100.00;100948.50;5016361;28;20662;-72
2023/05/15 04:52:16;;;;;;;80.60;44.00;;;;;;;12.16;100.00;100948.03;5018907;28;20049;-71
2023/05/15 04:54:43;;;;;;;79.53;40.15;;;;;;;12.17;100.00;100954.38;5018162;28;20049;-71
2023/05/15 04:57:09;;;;;;;86.82;45.30;;;;;;;12.11;100.00;100956.06;5015906;28;20532;-72
2023/05/15 04:59:36;;;;;;;91.07;44.42;;;;;;;12.09;100.00;100950.91;5013086;28;20060;-70
2023/05/15 05:02:02;;;;;;;84.72;44.13;;;;;;;12.02;100.00;100959.41;5019547;28;20069;-71
2023/05/15 05:04:29;;;;;;;87.78;45.28;;;;;;;12.07;100.00;100952.56;5014776;28;20076;-72
2023/05/15 05:06:55;;;;;;;86.07;43.13;;;;;;;12.13;100.00;100956.44;5016211;28;20045;-72
2023/05/15 05:09:22;;;;;;;80.55;38.67;;;;;;;12.07;100.00;100961.72;5018654;28;20049;-70
2023/05/15 05:11:49;;;;;;;82.90;42.40;;;;;;;11.94;100.00;100957.13;5017762;28;20053;-72
2023/05/15 05:14:15;;;;;;;81.50;43.88;;;;;;;11.98;100.00;100961.44;5015354;28;20053;-72
2023/05/15 05:16:45;;;;;;;76.65;38.28;;;;;;;11.84;100.00;100961.66;5016050;28;20153;-72
2023/05/15 05:19:11;;;;;;;75.97;39.28;;;;;;;11.80;100.00;100958.16;5015887;28;20049;-72
2023/05/15 05:21:38;;;;;;;76.40;40.97;;;;;;;11.83;100.00;100954.53;5016827;28;20071;-72
2023/05/15 05:24:04;;;;;;;74.50;37.17;;;;;;;11.82;100.00;100964.06;5013944;28;20060;-72
2023/05/15 05:26:31;;;;;;;70.97;37.17;;;;;;;11.69;100.00;100953.94;5016176;28;20574;-72
2023/05/15 05:28:57;;;;;;;81.50;43.50;;;;;;;11.74;100.00;100957.03;5015300;28;20042;-72
2023/05/15 05:31:24;;;;;;;88.95;42.95;;;;;;;11.81;100.00;100953.34;5015343;28;20068;-72
2023/05/15 05:33:51;;;;;;;80.20;39.47;;;;;;;11.80;100.00;100958.16;5015340;28;20073;-72
2023/05/15 05:36:18;;;;;;;87.47;41.30;;;;;;;11.67;100.00;100957.13;5016836;28;20041;-71
2023/05/15 05:38:45;;;;;;;78.90;40.30;;;;;;;11.60;100.00;100968.38;5015595;28;20065;-72
2023/05/15 05:41:11;;;;;;;24.25;11.43;;;;;;;11.36;100.00;100974.25;5013724;28;20136;-71
2023/05/15 05:43:38;;;;;;;69.78;37.13;;;;;;;11.37;100.00;100976.63;5013492;28;20049;-72
2023/05/15 05:46:04;;;;;;;39.38;15.00;;;;;;;11.19;100.00;100975.22;5014644;28;20088;-72
2023/05/15 05:48:31;;;;;;;68.50;33.55;;;;;;;11.23;100.00;100974.03;5020278;28;20060;-70
2023/05/15 05:50:57;;;;;;;59.50;29.55;;;;;;;11.21;100.00;100967.28;5024037;28;20079;-72
2023/05/15 05:53:24;;;;;;;84.93;40.95;;;;;;;11.31;100.00;100971.94;5022970;28;20152;-72
2023/05/15 05:55:50;;;;;;;81.60;41.53;;;;;;;11.39;100.00;100968.66;5025443;28;20041;-71
2023/05/15 05:58:17;;;;;;;74.63;40.05;;;;;;;11.48;100.00;100976.50;5010510;28;20050;-72
2023/05/15 06:00:49;;;;;;;65.10;34.35;;;;;;;11.48;100.00;100980.06;5021680;28;20108;-71
2023/05/15 06:03:16;;;;;;;64.15;30.60;;;;;;;11.41;100.00;100980.16;5021238;28;20049;-70
2023/05/15 06:05:42;;;;;;;74.43;37.70;;;;;;;11.40;100.00;100980.56;5020743;28;20056;-71
2023/05/15 06:08:09;;;;;;;78.00;38.55;;;;;;;11.44;100.00;100979.31;5015543;28;20426;-70
2023/05/15 06:10:36;;;;;;;84.60;42.58;;;;;;;11.45;100.00;100977.34;5007740;28;20046;-71
2023/05/15 06:13:03;;;;;;;75.82;36.38;;;;;;;11.39;100.00;100976.22;5009938;28;20077;-71
2023/05/15 06:15:29;;;;;;;65.60;30.35;;;;;;;11.24;100.00;100972.03;5014131;28;20061;-71
2023/05/15 06:17:56;;;;;;;76.95;31.02;;;;;;;11.21;100.00;100975.63;5021562;28;20060;-72
2023/05/15 06:20:22;;;;;;;50.25;19.63;;;;;;;11.10;100.00;100977.72;5028557;28;20092;-71
2023/05/15 06:22:49;;;;;;;35.65;15.30;;;;;;;11.01;100.00;100971.88;5028940;28;20080;-71
2023/05/15 06:25:17;;;;;;;78.35;38.05;;;;;;;11.13;100.00;100974.91;5016981;28;20049;-72
2023/05/15 06:27:44;;;;;;;91.25;47.22;;;;;;;11.26;100.00;100986.31;5020542;28;20049;-71
2023/05/15 06:30:11;;;;;;;87.78;42.10;;;;;;;11.22;100.00;100969.66;5022348;28;20128;-72
2023/05/15 06:32:38;;;;;;;72.72;34.03;;;;;;;11.18;100.00;100985.56;5017808;28;20045;-71
2023/05/15 06:35:05;;;;;;;91.43;41.75;;;;;;;11.17;100.00;100978.44;5025636;28;20049;-72
2023/05/15 06:37:32;;;;;;;48.03;17.88;;;;;;;11.08;100.00;100983.72;5024476;28;20057;-71
2023/05/15 06:39:58;;;;;;;91.22;41.88;;;;;;;11.21;100.00;100984.72;5024661;28;20053;-70
2023/05/15 06:42:25;;;;;;;94.18;41.63;;;;;;;11.32;100.00;100979.09;5017745;28;20046;-71
2023/05/15 06:44:52;;;;;;;80.07;30.52;;;;;;;11.17;100.00;100984.00;5022796;28;20128;-71
2023/05/15 06:47:18;;;;;;;92.30;40.35;;;;;;;11.27;100.00;100987.88;5025594;28;20871;-71
2023/05/15 06:49:45;;;;;;;93.28;38.85;;;;;;;11.27;100.00;100990.66;5025147;28;20060;-73
2023/05/15 06:52:12;;;;;;;95.05;44.20;;;;;;;11.33;100.00;100998.16;5025530;28;20128;-72
2023/05/15 06:54:40;;;;;;;96.15;43.65;;;;;;;11.43;100.00;100996.44;5024590;28;20059;-71
2023/05/15 06:57:06;;;;;;;93.15;41.38;;;;;;;11.45;100.00;101011.50;5029679;28;20073;-71
2023/05/15 06:59:34;;;;;;;81.97;36.63;;;;;;;11.43;100.00;101011.16;5027417;28;20871;-72
2023/05/15 07:02:02;;;;;;;83.88;37.58;;;;;;;11.43;100.00;101013.94;5022434;28;20415;-72
2023/05/15 07:04:29;;;;;;;89.72;42.20;;;;;;;11.57;100.00;101007.38;5024535;28;20052;-72
2023/05/15 07:06:56;;;;;;;74.15;36.05;;;;;;;11.48;100.00;101009.91;5030399;28;20045;-74
2023/05/15 07:09:23;;;;;;;74.05;37.55;;;;;;;11.50;100.00;101007.47;5028339;28;20424;-71
2023/05/15 07:11:50;;;;;;;66.00;32.67;;;;;;;11.52;100.00;101010.66;5027766;28;20060;-71
2023/05/15 07:14:17;;;;;;;31.38;14.20;;;;;;;11.43;100.00;101013.13;5027787;28;20585;-73
2023/05/15 07:16:45;;;;;;;69.60;36.97;;;;;;;11.57;100.00;101016.53;5027877;28;20045;-73
2023/05/15 07:19:12;;;;;;;59.17;31.40;;;;;;;11.61;100.00;101016.50;5028336;28;20068;-72
2023/05/15 07:21:39;;;;;;;67.43;34.67;;;;;;;11.72;100.00;101017.94;5028608;28;20115;-74
2023/05/15 07:24:05;;;;;;;63.78;32.08;;;;;;;11.79;100.00;101014.28;5027374;28;20045;-74
2023/05/15 07:26:32;;;;;;;59.15;32.67;;;;;;;11.83;100.00;101010.25;5027753;28;20055;-70
2023/05/15 07:29:12;;;;;;;72.63;40.17;;;;;;;12.00;100.00;101006.41;5024950;28;20057;-73
2023/05/15 07:31:39;;;;;;;64.38;36.10;;;;;;;12.24;100.00;101007.25;5024476;28;20508;-72
2023/05/15 07:34:06;;;;;;;63.58;36.88;;;;;;;12.47;100.00;101010.09;5026995;28;20108;-73
2023/05/15 07:36:32;;;;;;;54.30;30.08;;;;;;;12.60;100.00;101004.69;5026644;28;20500;-72
2023/05/15 07:38:59;;;;;;;54.78;30.92;;;;;;;12.71;100.00;100997.72;5027018;28;20053;-76
2023/05/15 07:41:25;;;;;;;48.38;29.00;;;;;;;12.67;100.00;100997.00;5017803;28;20045;-71
2023/05/15 07:43:52;;;;;;;46.25;27.10;;;;;;;12.90;100.00;100997.00;5027638;28;20077;-71
2023/05/15 07:46:18;;;;;;;47.38;29.25;;;;;;;13.13;100.00;100996.16;5027686;28;20053;-74
2023/05/15 07:48:45;;;;;;;47.92;27.08;;;;;;;13.29;100.00;100997.00;5027131;28;20056;-72
2023/05/15 07:51:11;;;;;;;52.72;29.27;;;;;;;13.27;100.00;100985.47;5028281;28;20302;-69
2023/05/15 07:53:37;;;;;;;45.60;26.98;;;;;;;13.47;100.00;100989.09;5031808;28;20056;-71
2023/05/15 07:56:04;;;;;;;44.65;25.98;;;;;;;13.49;100.00;100981.06;5026637;28;20060;-71
2023/05/15 07:58:32;;;;;;;44.10;26.02;;;;;;;13.54;100.00;100977.75;5029312;28;20053;-72
2023/05/15 08:00:59;;;;;;;46.47;27.05;;;;;;;13.73;100.00;100976.16;5027290;28;20073;-72
2023/05/15 08:03:25;;;;;;;42.75;27.00;;;;;;;13.97;100.00;100975.59;5026302;28;20049;-72
2023/05/15 08:05:52;;;;;;;45.83;27.17;;;;;;;14.20;100.00;100971.88;5026406;28;20590;-72
2023/05/15 08:08:18;;;;;;;40.88;26.83;;;;;;;14.20;100.00;100969.06;5025899;28;21652;-73
2023/05/15 08:10:45;;;;;;;41.90;23.02;;;;;;;14.41;100.00;100979.72;5025596;28;20050;-74
2023/05/15 08:13:11;;;;;;;38.85;25.38;;;;;;;14.49;100.00;100979.16;5026105;28;20268;-73
2023/05/15 08:15:38;;;;;;;40.67;26.10;;;;;;;14.60;100.00;100974.09;5022996;28;20057;-71
2023/05/15 08:18:11;;;;;;;39.95;22.20;;;;;;;14.49;100.00;100964.41;5017343;28;20069;-73
2023/05/15 08:20:38;;;;;;;42.88;23.08;;;;;;;14.62;100.00;100970.84;5016871;28;20487;-72
2023/05/15 08:23:04;;;;;;;34.28;19.88;;;;;;;14.73;100.00;100963.75;5015476;28;20524;-72
2023/05/15 08:25:31;;;;;;;38.63;19.88;;;;;;;14.60;100.00;100964.91;5014037;28;20072;-71
2023/05/15 08:27:57;;;;;;;31.52;18.92;;;;;;;14.67;100.00;100959.13;5018946;28;20041;-72
2023/05/15 08:30:24;;;;;;;37.80;20.45;;;;;;;14.59;100.00;100957.75;5011329;28;20052;-75
2023/05/15 08:32:50;;;;;;;33.78;18.90;;;;;;;14.73;100.00;100966.56;5017192;28;20041;-72
2023/05/15 08:35:17;;;;;;;30.15;17.67;;;;;;;14.83;100.00;100956.28;5018658;28;20569;-72
2023/05/15 08:37:43;;;;;;;28.77;16.83;;;;;;;14.77;100.00;100972.06;5016704;28;20037;-73
2023/05/15 08:40:11;;;;;;;33.10;18.90;;;;;;;14.78;100.00;100963.22;5022343;28;20045;-73
2023/05/15 08:42:51;;;;;;;31.92;17.95;;;;;;;14.73;100.00;100957.38;5020722;28;20046;-74
2023/05/15 08:45:19;;;;;;;29.50;15.63;;;;;;;14.80;100.00;100945.97;5027810;28;20067;-72
2023/05/15 08:47:45;;;;;;;34.78;19.35;;;;;;;14.94;100.00;100951.97;5022111;28;20396;-71
2023/05/15 08:50:14;;;;;;;30.40;18.20;;;;;;;14.97;100.00;100953.09;5016248;28;20419;-71
2023/05/15 08:52:42;;;;;;;30.85;17.30;;;;;;;15.07;100.00;100954.03;5019853;28;20076;-69
2023/05/15 08:55:09;;;;;;;31.70;15.25;;;;;;;14.99;100.00;100961.88;5010171;28;20061;-76
2023/05/15 08:57:37;;;;;;;31.98;18.10;;;;;;;15.14;100.00;100962.22;5014067;28;20752;-73
2023/05/15 09:00:08;;;;;;;29.60;17.45;;;;;;;15.31;100.00;100942.13;5011207;28;20060;-74
2023/05/15 09:02:36;;;;;;;29.15;17.30;;;;;;;15.48;100.00;100949.25;5014541;28;20056;-73
2023/05/15 09:05:07;;;;;;;32.47;18.42;;;;;;;15.61;100.00;100944.47;5019231;28;20056;-73
2023/05/15 09:07:34;;;;;;;34.55;17.67;;;;;;;15.85;100.00;100936.50;5018283;28;20042;-74
2023/05/15 09:10:02;;;;;;;32.53;18.13;;;;;;;15.90;100.00;100942.34;5015294;28;20058;-73
2023/05/15 09:12:32;;;;;;;36.22;20.23;;;;;;;15.85;100.00;100937.31;5013933;28;20049;-72
2023/05/15 09:15:12;;;;;;;30.33;18.20;;;;;;;15.99;100.00;100948.06;5017502;28;20426;-72
2023/05/15 09:17:39;;;;;;;29.92;15.35;;;;;;;16.21;100.00;100936.94;5009349;28;20088;-74
2023/05/15 09:20:07;;;;;;;27.15;14.98;;;;;;;16.35;100.00;100951.31;5019729;28;20053;-74
2023/05/15 09:22:34;;;;;;;19.60;10.00;;;;;;;16.51;100.00;100951.16;5021970;28;20058;-74
2023/05/15 09:25:03;;;;;;;24.60;11.48;;;;;;;16.46;100.00;100957.38;5014145;28;20095;-73
2023/05/15 09:27:39;;;;;;;27.25;15.65;;;;;;;16.36;100.00;100944.47;5013385;28;20145;-73
2023/05/15 09:30:09;;;;;;;27.58;15.45;;;;;;;16.43;100.00;100954.66;5022539;28;20046;-74
2023/05/15 09:32:37;;;;;;;27.13;15.48;;;;;;;16.42;100.00;100950.28;5019496;28;20055;-74
2023/05/15 09:35:04;;;;;;;17.00;8.45;;;;;;;16.48;100.00;100954.09;5026939;28;20049;-75
2023/05/15 09:37:32;;;;;;;26.67;15.63;;;;;;;16.43;100.00;100951.84;5027465;28;20046;-73
2023/05/15 09:40:09;;;;;;;12.57;5.35;;;;;;;16.28;100.00;100959.97;5023335;28;20160;-72
2023/05/15 09:42:37;;;;;;;31.63;16.10;;;;;;;16.55;100.00;100940.63;5019372;28;20049;-73
2023/05/15 09:45:05;;;;;;;27.00;15.35;;;;;;;16.80;100.00;100950.97;5024708;28;20059;-73
2023/05/15 09:47:32;;;;;;;27.60;15.52;;;;;;;17.04;100.00;100949.31;5013521;28;20137;-71
2023/05/15 09:49:59;;;;;;;25.23;15.60;;;;;;;17.14;100.00;100950.97;5023714;28;20502;-73
2023/05/15 09:52:27;;;;;;;26.95;16.10;;;;;;;17.36;100.00;100952.53;5028374;28;20049;-72
2023/05/15 09:54:55;;;;;;;29.73;16.73;;;;;;;17.55;100.00;100949.84;5017301;28;20141;-72
2023/05/15 09:57:22;;;;;;;20.65;10.23;;;;;;;17.37;100.00;100944.91;5018522;28;20060;-72
2023/05/15 09:59:49;;;;;;;25.67;14.43;;;;;;;17.34;100.00;100943.00;5025093;28;20199;-74
2023/05/15 10:02:33;;;;;;;23.60;14.13;;;;;;;17.34;100.00;100940.97;5021999;28;20609;-73
2023/05/15 10:05:00;;;;;;;30.33;16.25;;;;;;;17.60;100.00;100943.63;5021560;28;20072;-74
2023/05/15 10:07:31;;;;;;;30.02;19.08;;;;;;;17.73;100.00;100941.50;5024174;28;20052;-74
2023/05/15 10:09:58;;;;;;;24.77;15.15;;;;;;;17.83;100.00;100937.50;5021186;28;20124;-72
2023/05/15 10:12:30;;;;;;;25.58;14.88;;;;;;;17.86;100.00;100942.19;5025320;28;20073;-75
2023/05/15 10:14:58;;;;;;;24.52;14.18;;;;;;;17.87;100.00;100949.38;5020232;28;20582;-72
2023/05/15 10:17:30;;;;;;;35.50;21.70;;;;;;;18.04;100.00;100939.47;5017888;28;20475;-73
2023/05/15 10:19:59;;;;;;;23.58;11.68;;;;;;;18.09;100.00;100939.66;5022149;28;20183;-71
2023/05/15 10:22:29;;;;;;;21.50;11.88;;;;;;;18.02;100.00;100933.56;5022930;28;20051;-70
2023/05/15 10:25:14;;;;;;;23.30;11.48;;;;;;;18.01;100.00;100934.78;5023764;28;20504;-72
2023/05/15 10:27:42;;;;;;;22.73;12.05;;;;;;;18.16;100.00;100930.16;5025548;28;20060;-72
2023/05/15 10:30:10;;;;;;;23.77;11.75;;;;;;;18.12;100.00;100927.47;5027816;28;20123;-72
2023/05/15 10:32:38;;;;;;;22.20;13.20;;;;;;;18.42;100.00;100923.00;5026670;28;20054;-73
2023/05/15 10:35:05;;;;;;;24.80;13.40;;;;;;;18.50;100.00;100925.06;5027839;28;20057;-72
2023/05/15 10:37:34;;;;;;;21.10;10.02;;;;;;;18.53;100.00;100926.16;5029169;28;20525;-73
2023/05/15 10:40:01;;;;;;;20.30;11.95;;;;;;;18.85;100.00;100923.56;5026173;28;20428;-72
2023/05/15 10:42:28;;;;;;;21.38;10.68;;;;;;;18.95;100.00;100924.34;5028104;28;20092;-73
2023/05/15 10:44:58;;;;;;;18.90;10.73;;;;;;;19.23;100.00;100925.88;5020393;28;20060;-72
2023/05/15 10:47:26;;;;;;;20.35;10.48;;;;;;;19.36;100.00;100912.38;5025442;28;20042;-72
2023/05/15 10:49:55;;;;;;;18.90;9.63;;;;;;;19.49;100.00;100915.81;5028039;28;20056;-72
2023/05/15 10:52:23;;;;;;;22.30;10.73;;;;;;;19.69;100.00;100910.44;5031422;28;20049;-71
2023/05/15 10:54:52;;;;;;;23.98;11.23;;;;;;;19.18;100.00;100907.56;5029017;28;20050;-73
2023/05/15 10:57:21;;;;;;;19.30;9.80;;;;;;;19.32;100.00;100906.13;5028373;28;20053;-74
2023/05/15 10:59:49;;;;;;;17.65;8.13;;;;;;;19.56;100.00;100904.22;5027749;28;20597;-72
2023/05/15 11:02:29;;;;;;;17.65;8.98;;;;;;;19.79;100.00;100906.31;5027463;28;20049;-70
2023/05/15 11:04:57;;;;;;;16.27;8.52;;;;;;;19.67;100.00;100901.66;5030170;28;20049;-73
2023/05/15 11:07:24;;;;;;;18.83;9.32;;;;;;;19.78;100.00;100901.94;5022690;28;20054;-75